Time;durP1;ratioP1;P1;durP2;ratioP2;P2;SDS_P1;SDS_P2;PMS_P1;PMS_P2;Temp;Humidity;BMP_temperature;BMP_pressure;BME280_temperature;BME280_humidity;BME280_pressure;Samples;Min_cycle;Max_cycle;Signal;HPM_P1;HPM_P2
2024/01/10 00:01:55;;;;;;;18.33;9.83;;;;;;;-4.87;55.55;96218.00;5043936;28;20596;-77
2024/01/10 00:04:20;;;;;;;15.83;9.47;;;;;;;-4.93;55.28;96228.28;5014148;28;20198;-78
2024/01/10 00:06:45;;;;;;;20.03;10.17;;;;;;;-4.95;56.26;96224.94;5026604;28;20184;-78
2024/01/10 00:09:11;;;;;;;18.50;9.83;;;;;;;-4.94;56.72;96215.69;5028954;28;20203;-77
2024/01/10 00:11:36;;;;;;;24.77;10.10;;;;;;;-4.93;56.42;96217.34;5011635;28;20191;-78
2024/01/10 00:14:03;;;;;;;19.53;10.93;;;;;;;-4.95;55.52;96217.34;5008016;28;20191;-77
2024/01/10 00:16:28;;;;;;;18.13;9.80;;;;;;;-4.93;55.88;96213.09;5024086;28;20224;-78
2024/01/10 00:18:54;;;;;;;18.53;10.43;;;;;;;-4.97;55.44;96215.72;5008340;28;20282;-77
2024/01/10 00:21:19;;;;;;;18.77;9.40;;;;;;;-4.88;55.60;96206.19;5028441;28;20218;-76
2024/01/10 00:23:44;;;;;;;15.67;9.63;;;;;;;-4.82;55.60;96200.16;5027439;28;20196;-78
2024/01/10 00:26:10;;;;;;;14.33;9.33;;;;;;;-4.85;55.51;96196.00;5027385;28;20187;-76
2024/01/10 00:28:35;;;;;;;21.83;10.43;;;;;;;-4.89;55.54;96202.00;5027684;28;20198;-76
2024/01/10 00:31:00;;;;;;;16.87;9.40;;;;;;;-4.93;55.72;96197.06;5023456;28;20271;-77
2024/01/10 00:33:26;;;;;;;15.70;9.73;;;;;;;-4.99;55.58;96198.03;5012834;28;20630;-78
2024/01/10 00:35:51;;;;;;;20.03;9.87;;;;;;;-4.88;55.01;96185.94;5026884;28;20190;-77
2024/01/10 00:38:16;;;;;;;17.73;9.60;;;;;;;-4.86;55.82;96189.28;5027412;28;20203;-79
2024/01/10 00:40:42;;;;;;;14.03;9.07;;;;;;;-4.88;55.53;96185.94;5023595;28;20211;-78
2024/01/10 00:43:07;;;;;;;18.30;9.83;;;;;;;-4.79;55.15;96197.53;5026813;28;20190;-79
2024/01/10 00:45:32;;;;;;;17.93;9.53;;;;;;;-4.82;54.89;96191.72;5025618;28;20295;-78
2024/01/10 00:47:58;;;;;;;19.23;9.93;;;;;;;-4.88;55.01;96191.00;5011045;28;20214;-78
2024/01/10 00:50:23;;;;;;;17.30;10.10;;;;;;;-4.84;55.58;96194.31;5013360;28;20179;-79
2024/01/10 00:52:48;;;;;;;17.63;10.47;;;;;;;-4.81;55.30;96194.22;5026675;28;20695;-77
2024/01/10 00:55:14;;;;;;;19.10;10.03;;;;;;;-4.87;55.71;96189.28;5012974;28;20187;-79
2024/01/10 00:57:39;;;;;;;19.67;10.43;;;;;;;-4.79;55.34;96194.16;5027301;28;20190;-79
2024/01/10 01:00:09;;;;;;;14.20;9.60;;;;;;;-4.88;55.10;96197.75;5028606;28;20206;-77
2024/01/10 01:02:35;;;;;;;23.83;10.50;;;;;;;-4.81;54.84;96190.84;5011444;28;20245;-78
2024/01/10 01:05:00;;;;;;;17.30;10.70;;;;;;;-4.81;55.75;96190.84;5011161;28;20194;-78
2024/01/10 01:07:26;;;;;;;22.93;10.27;;;;;;;-4.79;56.10;96197.53;5026100;28;20187;-78
2024/01/10 01:09:52;;;;;;;20.63;10.40;;;;;;;-4.80;55.83;96195.88;5013900;28;20210;-79
2024/01/10 01:12:17;;;;;;;19.40;9.60;;;;;;;-4.79;56.07;96189.94;5011716;28;20704;-77
2024/01/10 01:14:43;;;;;;;20.17;10.23;;;;;;;-4.78;55.35;96198.34;5009125;28;20221;-79
2024/01/10 01:17:08;;;;;;;21.00;10.10;;;;;;;-4.80;55.59;96197.56;5011199;28;20191;-78
2024/01/10 01:19:33;;;;;;;20.63;9.93;;;;;;;-4.83;55.24;96188.34;5012658;28;20340;-79
2024/01/10 01:21:59;;;;;;;20.47;9.87;;;;;;;-4.79;55.29;96194.16;5011241;28;20207;-77
2024/01/10 01:24:24;;;;;;;14.80;9.17;;;;;;;-4.74;55.58;96192.34;5010757;28;20199;-76
2024/01/10 01:26:49;;;;;;;16.27;10.43;;;;;;;-4.70;55.92;96191.41;5027597;28;20207;-79
2024/01/10 01:29:15;;;;;;;22.07;11.17;;;;;;;-4.71;55.83;96198.16;5023651;28;20336;-77
2024/01/10 01:31:40;;;;;;;18.20;9.93;;;;;;;-4.71;55.66;96193.09;5027135;28;20189;-77
2024/01/10 01:34:05;;;;;;;18.30;10.63;;;;;;;-4.77;56.25;96192.41;5012096;28;20202;-78
2024/01/10 01:36:31;;;;;;;20.40;10.37;;;;;;;-4.70;56.12;96189.69;5030456;28;20183;-78
2024/01/10 01:38:56;;;;;;;20.97;10.87;;;;;;;-4.78;56.07;96185.69;5024162;28;20280;-77
2024/01/10 01:41:21;;;;;;;18.27;10.57;;;;;;;-4.79;56.25;96184.88;5008862;28;20249;-78
2024/01/10 01:43:47;;;;;;;22.93;11.33;;;;;;;-4.69;56.13;96182.91;5009303;28;20246;-78
2024/01/10 01:46:12;;;;;;;24.17;11.53;;;;;;;-4.76;57.01;96184.81;5008693;28;20309;-79
2024/01/10 01:48:38;;;;;;;20.87;11.47;;;;;;;-4.72;56.83;96185.53;5025814;28;20225;-77
2024/01/10 01:51:07;;;;;;;21.63;10.20;;;;;;;-4.73;56.75;96189.78;5026953;28;20649;-77
2024/01/10 01:53:36;;;;;;;16.03;10.33;;;;;;;-4.70;56.79;96189.69;5027381;28;20194;-79
2024/01/10 01:56:03;;;;;;;21.47;10.43;;;;;;;-4.70;56.60;96187.16;5026727;28;20179;-77
2024/01/10 01:58:29;;;;;;;19.77;10.10;;;;;;;-4.67;57.04;96188.78;5024915;28;20245;-77
2024/01/10 02:00:55;;;;;;;20.17;10.47;;;;;;;-4.76;57.16;96184.81;5027683;28;20222;-78
2024/01/10 02:03:20;;;;;;;16.53;10.00;;;;;;;-4.70;57.23;96183.78;5024317;28;20182;-78
2024/01/10 02:05:46;;;;;;;16.03;9.60;;;;;;;-4.62;56.71;96189.50;5007869;28;20187;-78
2024/01/10 02:08:11;;;;;;;19.20;9.37;;;;;;;-4.70;57.42;96189.69;5021301;28;20207;-77
2024/01/10 02:10:37;;;;;;;19.30;10.20;;;;;;;-4.65;56.48;96182.81;5012283;28;20182;-77
2024/01/10 02:13:02;;;;;;;20.53;10.37;;;;;;;-4.61;56.32;96186.91;5022704;28;20194;-78
2024/01/10 02:15:27;;;;;;;17.70;10.03;;;;;;;-4.60;56.37;96175.06;5024611;28;20205;-77
2024/01/10 02:17:53;;;;;;;20.53;10.23;;;;;;;-4.59;56.60;96181.81;5006392;28;20207;-78
2024/01/10 02:20:18;;;;;;;21.40;10.23;;;;;;;-4.59;57.13;96177.59;5010490;28;20800;-77
2024/01/10 02:22:44;;;;;;;20.77;9.87;;;;;;;-4.62;57.18;96179.34;5039991;28;20254;-77
2024/01/10 02:25:10;;;;;;;18.17;10.57;;;;;;;-4.56;57.30;96176.66;5008047;28;20190;-77
2024/01/10 02:27:36;;;;;;;16.63;9.80;;;;;;;-4.65;57.76;96174.38;5022463;28;20191;-77
2024/01/10 02:30:03;;;;;;;18.83;10.47;;;;;;;-4.57;57.21;96165.69;5024979;28;20549;-77
2024/01/10 02:32:28;;;;;;;21.67;11.60;;;;;;;-4.51;56.42;96168.91;5025142;28;20260;-78
2024/01/10 02:34:54;;;;;;;24.37;11.60;;;;;;;-4.65;57.47;96166.78;5011937;28;20217;-77
2024/01/10 02:37:19;;;;;;;21.63;10.10;;;;;;;-4.71;57.89;96172.81;5023401;28;20189;-78
2024/01/10 02:39:44;;;;;;;19.67;11.00;;;;;;;-4.61;57.61;96163.28;5025907;28;20246;-78
2024/01/10 02:42:10;;;;;;;19.33;11.30;;;;;;;-4.64;58.26;96169.25;5011584;28;20238;-77
2024/01/10 02:44:35;;;;;;;20.67;11.43;;;;;;;-4.69;57.62;96170.25;5015293;28;20213;-78
2024/01/10 02:47:00;;;;;;;17.67;10.20;;;;;;;-4.70;57.66;96169.41;5011882;28;20190;-77
2024/01/10 02:49:26;;;;;;;19.07;10.30;;;;;;;-4.66;57.76;96162.56;5026880;28;20211;-77
2024/01/10 02:51:51;;;;;;;18.97;10.87;;;;;;;-4.75;58.18;96153.53;5030640;28;20194;-79
2024/01/10 02:54:16;;;;;;;20.87;11.37;;;;;;;-4.71;57.88;96157.63;5031246;28;20203;-78
2024/01/10 02:56:42;;;;;;;18.67;10.60;;;;;;;-4.83;58.70;96157.13;5031729;28;20193;-78
2024/01/10 02:59:07;;;;;;;17.77;10.03;;;;;;;-4.69;58.41;96160.09;5031562;28;20207;-78
2024/01/10 03:01:32;;;;;;;25.67;11.33;;;;;;;-4.68;57.86;96156.69;5033416;28;20199;-78
2024/01/10 03:03:58;;;;;;;21.67;11.30;;;;;;;-4.82;58.42;96153.72;5013677;28;20194;-77
2024/01/10 03:06:23;;;;;;;20.93;11.00;;;;;;;-4.89;58.46;96147.97;5032038;28;20188;-78
2024/01/10 03:08:49;;;;;;;20.10;11.27;;;;;;;-4.81;58.57;96152.84;5014874;28;20210;-78
2024/01/10 03:11:15;;;;;;;23.53;11.23;;;;;;;-4.90;58.92;96144.59;5015871;28;20213;-79
2024/01/10 03:13:40;;;;;;;17.13;11.07;;;;;;;-4.95;58.71;96148.94;5013734;28;20261;-77
2024/01/10 03:16:06;;;;;;;19.00;11.20;;;;;;;-4.90;59.61;96149.69;5028498;28;20205;-78
2024/01/10 03:18:31;;;;;;;20.50;10.80;;;;;;;-4.79;59.07;96153.63;5032386;28;20215;-78
2024/01/10 03:20:56;;;;;;;19.63;11.37;;;;;;;-4.90;59.20;96147.16;5048546;28;20211;-79
2024/01/10 03:23:22;;;;;;;19.50;11.00;;;;;;;-4.76;59.43;96148.50;5029580;28;20211;-78
2024/01/10 03:25:47;;;;;;;17.47;11.10;;;;;;;-4.85;59.66;96145.34;5029458;28;20262;-79
2024/01/10 03:28:17;;;;;;;18.17;11.57;;;;;;;-4.80;59.13;96147.72;5028618;28;20203;-77
2024/01/10 03:30:43;;;;;;;22.63;11.57;;;;;;;-4.90;59.73;96142.06;5028370;28;20671;-78
2024/01/10 03:33:08;;;;;;;20.17;12.03;;;;;;;-4.85;59.32;96141.97;5027591;28;20225;-77
2024/01/10 03:35:33;;;;;;;26.87;12.77;;;;;;;-4.85;59.40;96141.97;5030211;28;20195;-77
2024/01/10 03:37:58;;;;;;;20.77;11.50;;;;;;;-4.82;59.50;96141.06;5027259;28;20215;-77
2024/01/10 03:40:24;;;;;;;24.90;11.57;;;;;;;-4.78;59.81;96140.09;5008132;28;20223;-78
2024/01/10 03:42:49;;;;;;;20.47;11.67;;;;;;;-4.78;59.78;96133.31;5025480;28;20620;-78
2024/01/10 03:45:17;;;;;;;22.03;11.93;;;;;;;-4.78;59.98;96145.16;5030277;28;20187;-78
2024/01/10 03:47:42;;;;;;;23.63;11.77;;;;;;;-4.71;59.64;96141.59;5010482;28;20552;-79
2024/01/10 03:50:08;;;;;;;21.63;11.97;;;;;;;-4.74;59.69;96136.63;5023519;28;20254;-77
2024/01/10 03:52:33;;;;;;;25.57;12.77;;;;;;;-4.81;60.04;96137.63;5028054;28;20186;-77
2024/01/10 03:54:59;;;;;;;22.23;12.33;;;;;;;-4.72;60.54;96137.41;5029055;28;20212;-77
2024/01/10 03:57:24;;;;;;;19.97;11.43;;;;;;;-4.60;59.85;96137.88;5027369;28;20241;-78
2024/01/10 03:59:50;;;;;;;24.87;12.80;;;;;;;-4.62;60.23;96138.81;5026544;28;20198;-78
2024/01/10 04:02:15;;;;;;;18.33;11.33;;;;;;;-4.61;60.08;96138.75;5027218;28;20248;-78
2024/01/10 04:04:41;;;;;;;21.20;11.90;;;;;;;-4.70;60.81;96140.72;5010944;28;20281;-78
2024/01/10 04:07:06;;;;;;;22.03;11.90;;;;;;;-4.63;60.02;96143.03;5025498;28;20454;-80
2024/01/10 04:09:31;;;;;;;22.63;11.33;;;;;;;-4.56;59.55;96146.25;5014380;28;20211;-77
2024/01/10 04:11:57;;;;;;;22.07;12.40;;;;;;;-4.46;60.21;96151.88;5027440;28;20195;-76
2024/01/10 04:14:22;;;;;;;24.13;12.47;;;;;;;-4.51;60.24;96154.53;5008952;28;20190;-77
2024/01/10 04:16:48;;;;;;;23.20;11.00;;;;;;;-4.58;60.73;96153.06;5026499;28;20191;-79
2024/01/10 04:19:13;;;;;;;22.60;11.40;;;;;;;-4.60;60.15;96149.72;5012624;28;20215;-79
2024/01/10 04:21:39;;;;;;;22.27;12.10;;;;;;;-4.57;59.86;96159.78;5030177;28;20209;-80
2024/01/10 04:24:04;;;;;;;20.03;11.70;;;;;;;-4.46;59.77;96162.88;5028676;28;20179;-79
2024/01/10 04:26:30;;;;;;;22.30;11.40;;;;;;;-4.51;60.46;96157.06;5012468;28;20282;-79
2024/01/10 04:28:55;;;;;;;21.17;12.37;;;;;;;-4.52;60.48;96159.66;5024698;28;20210;-76
2024/01/10 04:31:21;;;;;;;22.17;12.00;;;;;;;-4.68;60.42;96166.84;5027091;28;20262;-79
2024/01/10 04:33:46;;;;;;;23.60;12.80;;;;;;;-4.61;60.77;96155.66;5013546;28;20248;-79
2024/01/10 04:36:11;;;;;;;19.53;11.77;;;;;;;-4.56;59.84;96156.38;5029791;28;20191;-79
2024/01/10 04:38:37;;;;;;;24.40;12.47;;;;;;;-4.57;59.56;96158.09;5011269;28;20305;-79
2024/01/10 04:41:02;;;;;;;19.73;11.23;;;;;;;-4.62;60.27;96156.53;5026319;28;20199;-78
2024/01/10 04:43:27;;;;;;;22.57;11.77;;;;;;;-4.62;60.30;96152.31;5027130;28;20187;-79
2024/01/10 04:45:53;;;;;;;23.43;11.80;;;;;;;-4.62;60.42;96166.69;5031026;28;20179;-79
2024/01/10 04:48:18;;;;;;;22.50;12.50;;;;;;;-4.63;60.65;96149.81;5009980;28;20211;-78
2024/01/10 04:50:43;;;;;;;19.40;11.83;;;;;;;-4.70;61.11;96158.44;5011151;28;20198;-78
2024/01/10 04:53:09;;;;;;;21.43;11.90;;;;;;;-4.63;60.75;96144.75;5028892;28;20211;-79
2024/01/10 04:55:34;;;;;;;19.57;11.77;;;;;;;-4.65;61.54;96146.50;5030043;28;20707;-79
2024/01/10 04:58:00;;;;;;;18.47;11.27;;;;;;;-4.57;61.49;96147.94;5011088;28;20728;-78
2024/01/10 05:00:25;;;;;;;23.53;11.30;;;;;;;-4.63;61.16;96148.09;5013849;28;20231;-79
2024/01/10 05:02:50;;;;;;;22.60;11.47;;;;;;;-4.62;61.37;96154.00;5011491;28;20186;-78
2024/01/10 05:05:18;;;;;;;22.17;11.67;;;;;;;-4.63;61.12;96148.09;5011604;28;20654;-77
2024/01/10 05:07:43;;;;;;;22.53;11.60;;;;;;;-4.71;61.08;96151.72;5009455;28;20544;-78
2024/01/10 05:10:09;;;;;;;24.63;11.87;;;;;;;-4.65;61.46;96159.16;5014254;28;20229;-79
2024/01/10 05:12:34;;;;;;;23.87;12.30;;;;;;;-4.69;60.97;96160.94;5028133;28;20293;-78
2024/01/10 05:14:59;;;;;;;21.13;12.20;;;;;;;-4.69;61.38;96157.56;5025016;28;20175;-79
2024/01/10 05:17:25;;;;;;;24.43;11.97;;;;;;;-4.85;60.89;96150.41;5011078;28;20194;-78
2024/01/10 05:19:50;;;;;;;25.23;13.47;;;;;;;-4.81;61.77;96157.91;5013970;28;20229;-78
2024/01/10 05:22:16;;;;;;;22.97;12.10;;;;;;;-4.83;61.22;96154.59;5011389;28;20206;-77
2024/01/10 05:24:41;;;;;;;19.33;11.60;;;;;;;-4.87;61.89;96157.19;5025612;28;20187;-79
2024/01/10 05:27:06;;;;;;;21.37;11.83;;;;;;;-4.90;61.56;96154.75;5028492;28;20187;-78
2024/01/10 05:29:32;;;;;;;22.77;12.10;;;;;;;-4.97;62.49;96152.41;5012833;28;20218;-78
2024/01/10 05:31:57;;;;;;;18.67;11.10;;;;;;;-4.98;62.09;96154.09;5011263;28;20673;-79
2024/01/10 05:34:22;;;;;;;19.50;11.70;;;;;;;-4.95;62.04;96148.94;5014237;28;20243;-78
2024/01/10 05:36:49;;;;;;;22.10;12.27;;;;;;;-4.97;62.74;96143.09;5009986;28;20225;-79
2024/01/10 05:39:15;;;;;;;21.90;11.97;;;;;;;-5.01;61.83;96150.84;5009377;28;20219;-77
2024/01/10 05:41:41;;;;;;;22.03;12.63;;;;;;;-5.02;62.38;96154.25;5008826;28;20206;-78
2024/01/10 05:44:07;;;;;;;19.47;11.13;;;;;;;-5.07;63.47;96153.50;5027524;28;20211;-78
2024/01/10 05:46:32;;;;;;;25.97;12.70;;;;;;;-5.05;62.51;96144.16;5008853;28;20226;-81
2024/01/10 05:48:58;;;;;;;20.20;11.50;;;;;;;-5.07;62.93;96151.81;5004831;28;20214;-78
2024/01/10 05:51:23;;;;;;;20.93;11.57;;;;;;;-5.08;62.79;96157.75;5023628;28;20190;-77
2024/01/10 05:53:48;;;;;;;19.87;11.97;;;;;;;-5.18;63.52;96151.25;5025336;28;20236;-77
2024/01/10 05:56:14;;;;;;;18.47;10.87;;;;;;;-5.11;63.14;96157.84;5025490;28;20191;-76
2024/01/10 05:58:40;;;;;;;19.47;12.43;;;;;;;-5.15;63.28;96151.16;5022488;28;20262;-78
2024/01/10 06:01:09;;;;;;;24.50;11.93;;;;;;;-5.25;63.54;96153.09;5011005;28;20198;-77
2024/01/10 06:03:35;;;;;;;20.63;12.17;;;;;;;-5.25;63.46;96160.69;5024102;28;20682;-77
2024/01/10 06:06:00;;;;;;;19.47;12.33;;;;;;;-5.26;63.75;96148.91;5023837;28;20179;-78
2024/01/10 06:08:26;;;;;;;24.27;11.93;;;;;;;-5.34;63.47;96147.44;5005980;28;20726;-77
2024/01/10 06:10:52;;;;;;;22.53;13.10;;;;;;;-5.37;63.47;96150.88;5026951;28;20180;-77
2024/01/10 06:13:17;;;;;;;22.73;13.33;;;;;;;-5.54;64.75;96145.41;5024232;28;20222;-77
2024/01/10 06:15:42;;;;;;;26.10;13.73;;;;;;;-5.46;64.18;96151.94;5009870;28;20183;-77
2024/01/10 06:18:08;;;;;;;26.10;13.20;;;;;;;-5.46;64.34;96151.94;5027157;28;20202;-78
2024/01/10 06:20:35;;;;;;;28.17;12.87;;;;;;;-5.50;64.54;96155.38;5029359;28;21540;-76
2024/01/10 06:23:00;;;;;;;22.57;12.50;;;;;;;-5.54;64.69;96152.97;5012771;28;20186;-79
2024/01/10 06:25:27;;;;;;;25.97;13.80;;;;;;;-5.61;65.26;96154.81;5028216;28;20182;-78
2024/01/10 06:27:52;;;;;;;25.17;12.97;;;;;;;-5.61;64.98;96154.81;5033435;28;20232;-78
2024/01/10 06:30:18;;;;;;;19.97;12.13;;;;;;;-5.61;64.80;96149.75;5012596;28;20560;-78
2024/01/10 06:32:43;;;;;;;21.23;12.33;;;;;;;-5.62;65.45;96147.28;5030100;28;20187;-77
2024/01/10 06:35:09;;;;;;;22.10;13.47;;;;;;;-5.65;65.24;96148.19;5016676;28;20219;-78
2024/01/10 06:37:35;;;;;;;21.03;12.13;;;;;;;-5.68;65.94;96153.28;5035275;28;20198;-79
2024/01/10 06:40:00;;;;;;;26.17;13.70;;;;;;;-5.62;65.76;96148.09;5014551;28;20202;-78
2024/01/10 06:42:26;;;;;;;20.83;12.53;;;;;;;-5.65;65.26;96149.84;5015351;28;20209;-78
2024/01/10 06:44:51;;;;;;;23.00;13.47;;;;;;;-5.74;65.86;96151.75;5034459;28;20194;-77
2024/01/10 06:47:16;;;;;;;24.73;13.50;;;;;;;-5.76;65.88;96152.63;5034369;28;20225;-78
2024/01/10 06:49:42;;;;;;;25.23;13.73;;;;;;;-5.77;66.25;96153.50;5023937;28;20210;-83
2024/01/10 06:52:07;;;;;;;24.73;13.30;;;;;;;-5.77;65.47;96148.44;5006790;28;20194;-79
2024/01/10 06:54:33;;;;;;;25.67;14.20;;;;;;;-5.72;65.76;96149.19;5025020;28;20263;-78
2024/01/10 06:56:58;;;;;;;25.47;13.60;;;;;;;-5.73;66.06;96152.59;5024545;28;20189;-78
2024/01/10 06:59:24;;;;;;;23.23;13.10;;;;;;;-5.70;65.87;96160.91;5023932;28;20465;-78
2024/01/10 07:01:53;;;;;;;29.00;15.13;;;;;;;-5.72;66.55;96164.38;5008542;28;20230;-80
2024/01/10 07:04:18;;;;;;;24.30;13.63;;;;;;;-5.73;65.73;96168.59;5005284;28;20220;-79
2024/01/10 07:06:44;;;;;;;27.73;14.20;;;;;;;-5.73;66.01;96173.66;5025480;28;20190;-79
2024/01/10 07:09:10;;;;;;;23.83;13.90;;;;;;;-5.63;65.87;96179.34;5007681;28;20207;-78
2024/01/10 07:11:35;;;;;;;20.60;13.57;;;;;;;-5.65;66.19;96180.22;5025772;28;20189;-78
2024/01/10 07:14:00;;;;;;;27.00;14.77;;;;;;;-5.67;65.73;96187.00;5022338;28;20178;-78
2024/01/10 07:16:26;;;;;;;28.57;16.17;;;;;;;-5.80;66.03;96187.31;5007161;28;20190;-78
2024/01/10 07:18:51;;;;;;;26.73;15.50;;;;;;;-5.78;65.46;96184.72;5025070;28;20214;-79
2024/01/10 07:21:17;;;;;;;26.73;15.00;;;;;;;-5.77;65.63;96179.63;5027043;28;20202;-79
2024/01/10 07:23:43;;;;;;;26.27;14.83;;;;;;;-5.72;65.41;96182.91;5024736;28;20242;-78
2024/01/10 07:26:08;;;;;;;25.37;14.83;;;;;;;-5.69;65.55;96189.59;5007690;28;20231;-78
2024/01/10 07:28:34;;;;;;;28.10;14.47;;;;;;;-5.68;65.65;96190.41;5007545;28;20583;-79
2024/01/10 07:31:02;;;;;;;26.77;14.83;;;;;;;-5.69;65.54;96184.53;5006596;28;20567;-79
2024/01/10 07:33:30;;;;;;;28.73;15.30;;;;;;;-5.68;65.71;96186.19;5005710;28;20183;-79
2024/01/10 07:35:56;;;;;;;28.10;14.87;;;;;;;-5.73;66.06;96181.25;5027290;28;20191;-79
2024/01/10 07:38:21;;;;;;;26.33;15.27;;;;;;;-5.63;66.33;96186.94;5006865;28;20217;-78
2024/01/10 07:40:47;;;;;;;26.40;14.90;;;;;;;-5.63;65.91;96188.63;5021701;28;20199;-79
2024/01/10 07:43:12;;;;;;;31.73;15.23;;;;;;;-5.70;65.81;96198.03;5020438;28;20241;-79
2024/01/10 07:45:38;;;;;;;29.60;15.50;;;;;;;-5.67;66.07;96195.44;5007403;28;20217;-80
2024/01/10 07:48:03;;;;;;;23.77;13.87;;;;;;;-5.67;65.73;96189.53;5007192;28;20218;-78
2024/01/10 07:50:28;;;;;;;25.90;15.17;;;;;;;-5.63;65.80;96194.53;5026995;28;20227;-78
2024/01/10 07:52:54;;;;;;;27.00;15.57;;;;;;;-5.55;66.17;96195.19;5009144;28;20187;-79
2024/01/10 07:55:20;;;;;;;27.23;14.57;;;;;;;-5.57;65.82;96211.25;5008848;28;20192;-77
2024/01/10 07:57:45;;;;;;;28.33;16.23;;;;;;;-5.44;65.88;96207.56;5027852;28;20189;-78
2024/01/10 08:00:10;;;;;;;35.23;16.37;;;;;;;-5.45;66.16;96211.81;5007534;28;20182;-79
2024/01/10 08:02:39;;;;;;;32.53;15.03;;;;;;;-5.44;66.15;96208.41;5035800;28;20221;-78
2024/01/10 08:05:08;;;;;;;25.27;14.63;;;;;;;-5.21;65.86;96212.13;5020814;28;20209;-77
2024/01/10 08:07:34;;;;;;;28.47;14.77;;;;;;;-5.13;65.84;96213.56;5037092;28;20192;-77
2024/01/10 08:10:00;;;;;;;28.67;14.57;;;;;;;-4.93;65.42;96213.09;5031210;28;20181;-77
2024/01/10 08:12:25;;;;;;;30.83;15.33;;;;;;;-4.78;65.08;96222.00;5010134;28;20210;-78
2024/01/10 08:14:50;;;;;;;23.07;13.90;;;;;;;-4.72;64.41;96216.78;5027463;28;20239;-79
2024/01/10 08:17:16;;;;;;;26.00;14.80;;;;;;;-4.61;64.39;96212.25;5027824;28;20193;-79
2024/01/10 08:19:42;;;;;;;23.67;14.23;;;;;;;-4.49;64.25;96221.25;5024562;28;20682;-77
2024/01/10 08:22:07;;;;;;;29.63;15.20;;;;;;;-4.41;63.75;96216.81;5023928;28;20202;-78
2024/01/10 08:24:33;;;;;;;26.53;15.97;;;;;;;-4.32;63.82;96220.81;5022970;28;20233;-77
2024/01/10 08:26:58;;;;;;;36.43;15.33;;;;;;;-4.37;63.37;96230.22;5008174;28;20217;-78
2024/01/10 08:29:30;;;;;;;26.37;15.37;;;;;;;-4.34;64.39;96227.59;5023099;28;20203;-77
2024/01/10 08:31:56;;;;;;;24.13;13.93;;;;;;;-4.20;63.62;96222.16;5022145;28;20234;-78
2024/01/10 08:34:22;;;;;;;24.97;14.50;;;;;;;-4.18;64.04;96218.72;5023911;28;20182;-78
2024/01/10 08:36:50;;;;;;;24.43;16.00;;;;;;;-4.26;64.26;96218.09;5024404;28;20174;-77
2024/01/10 08:39:16;;;;;;;29.20;15.03;;;;;;;-4.13;63.07;96218.59;5021363;28;20219;-78
2024/01/10 08:41:44;;;;;;;30.83;15.90;;;;;;;-4.02;63.54;96226.72;5009025;28;20202;-78
2024/01/10 08:44:12;;;;;;;26.93;15.13;;;;;;;-3.92;63.16;96228.13;5023861;28;20187;-77
2024/01/10 08:46:37;;;;;;;28.53;15.20;;;;;;;-3.95;63.84;96215.53;5014928;28;20186;-78
2024/01/10 08:49:03;;;;;;;28.87;16.60;;;;;;;-3.93;64.52;96221.41;5009052;28;20226;-78
2024/01/10 08:51:28;;;;;;;26.47;16.00;;;;;;;-3.84;63.90;96222.84;5024368;28;20179;-79
2024/01/10 08:53:53;;;;;;;29.37;16.37;;;;;;;-3.82;62.94;96232.06;5021156;28;20202;-78
2024/01/10 08:56:19;;;;;;;32.23;18.47;;;;;;;-3.82;63.02;96232.06;5022199;28;20623;-79
2024/01/10 08:58:45;;;;;;;47.13;22.67;;;;;;;-3.67;63.62;96229.97;5022296;28;20996;-78
2024/01/10 09:01:10;;;;;;;36.23;17.63;;;;;;;-3.59;62.79;96228.84;5024613;28;20214;-79
2024/01/10 09:03:37;;;;;;;30.23;16.53;;;;;;;-3.48;61.90;96231.91;5026526;28;20194;-79
2024/01/10 09:06:03;;;;;;;29.57;16.03;;;;;;;-3.40;61.70;96236.75;5022976;28;20183;-78
2024/01/10 09:08:29;;;;;;;31.53;16.93;;;;;;;-3.52;61.81;96225.25;5019886;28;20202;-79
2024/01/10 09:10:55;;;;;;;31.90;16.40;;;;;;;-3.47;61.51;96235.25;5011078;28;20186;-78
2024/01/10 09:13:20;;;;;;;28.93;16.17;;;;;;;-3.65;62.15;96246.81;5027650;28;20552;-77
2024/01/10 09:15:46;;;;;;;31.20;18.40;;;;;;;-3.39;60.86;96240.94;5007243;28;20325;-79
2024/01/10 09:18:11;;;;;;;30.43;17.83;;;;;;;-3.36;61.79;96242.56;5025292;28;20700;-80
2024/01/10 09:20:36;;;;;;;33.50;17.60;;;;;;;-3.26;61.81;96249.03;5012649;28;20730;-78
2024/01/10 09:23:02;;;;;;;28.20;16.67;;;;;;;-3.34;61.63;96254.34;5025601;28;20187;-77
2024/01/10 09:25:28;;;;;;;30.20;16.93;;;;;;;-3.28;61.22;96253.31;5023250;28;20236;-79
2024/01/10 09:27:54;;;;;;;30.80;16.50;;;;;;;-3.31;60.70;96259.31;5022720;28;20282;-78
2024/01/10 09:30:19;;;;;;;33.60;17.47;;;;;;;-3.09;60.12;96261.19;5022316;28;20179;-79
2024/01/10 09:32:45;;;;;;;28.23;16.80;;;;;;;-3.04;59.74;96256.81;5009444;28;20233;-79
2024/01/10 09:35:11;;;;;;;30.13;16.43;;;;;;;-3.16;60.40;96256.31;5006199;28;20197;-76
2024/01/10 09:37:36;;;;;;;28.57;16.23;;;;;;;-3.11;61.00;96261.25;5027936;28;20185;-77
2024/01/10 09:40:02;;;;;;;30.47;17.20;;;;;;;-3.09;60.20;96259.50;5024397;28;20233;-78
2024/01/10 09:42:31;;;;;;;31.47;16.97;;;;;;;-3.11;60.33;96253.63;5007561;28;20219;-80
2024/01/10 09:44:56;;;;;;;29.93;17.17;;;;;;;-3.08;60.82;96255.25;5026032;28;20197;-78
2024/01/10 09:47:22;;;;;;;28.67;17.37;;;;;;;-3.01;60.69;96261.78;5028033;28;20262;-80
2024/01/10 09:49:47;;;;;;;31.80;16.50;;;;;;;-2.74;60.40;96263.47;5005605;28;20207;-78
2024/01/10 09:52:23;;;;;;;28.23;16.87;;;;;;;-2.74;60.68;96250.75;5022029;28;20183;-78
2024/01/10 09:54:54;;;;;;;30.17;17.33;;;;;;;-2.82;60.38;96247.63;5021338;28;20178;-78
2024/01/10 09:57:20;;;;;;;30.23;16.50;;;;;;;-2.64;60.28;96257.19;5023280;28;20255;-78
2024/01/10 09:59:47;;;;;;;30.73;17.07;;;;;;;-2.54;59.72;96267.06;5022617;28;20261;-79
2024/01/10 10:02:13;;;;;;;35.43;17.60;;;;;;;-2.59;59.51;96254.50;5011102;28;20248;-78
2024/01/10 10:04:42;;;;;;;28.30;16.83;;;;;;;-2.48;58.36;96252.41;5025730;28;20241;-80
2024/01/10 10:07:07;;;;;;;30.00;16.33;;;;;;;-2.56;58.28;96256.94;5005481;28;20186;-77
2024/01/10 10:09:33;;;;;;;30.27;16.43;;;;;;;-2.44;58.23;96261.63;5006240;28;20286;-77
2024/01/10 10:11:58;;;;;;;31.00;16.43;;;;;;;-2.31;57.60;96256.94;5026998;28;20176;-78
2024/01/10 10:14:26;;;;;;;30.37;17.87;;;;;;;-2.11;57.45;96249.44;5024422;28;20183;-77
2024/01/10 10:16:51;;;;;;;31.80;18.57;;;;;;;-2.14;57.83;96249.53;5005702;28;20179;-78
2024/01/10 10:19:24;;;;;;;28.83;18.10;;;;;;;-2.03;57.76;96249.19;5022377;28;20227;-78
2024/01/10 10:21:49;;;;;;;30.30;16.73;;;;;;;-2.04;57.29;96250.03;5025560;28;20218;-80
2024/01/10 10:24:15;;;;;;;33.17;16.73;;;;;;;-1.93;57.25;96240.34;5022967;28;20198;-76
2024/01/10 10:26:41;;;;;;;27.60;16.37;;;;;;;-1.84;56.73;96250.19;5024183;28;20210;-79
2024/01/10 10:29:06;;;;;;;31.57;17.73;;;;;;;-1.78;56.53;96244.03;5004034;28;20329;-79
2024/01/10 10:31:32;;;;;;;26.97;16.57;;;;;;;-1.72;56.18;96243.81;5025859;28;20207;-79
2024/01/10 10:33:59;;;;;;;27.13;15.73;;;;;;;-1.90;56.28;96245.31;5004617;28;20194;-79
2024/01/10 10:36:25;;;;;;;28.30;16.30;;;;;;;-1.62;55.89;96244.28;5026513;28;20241;-78
2024/01/10 10:38:50;;;;;;;26.63;16.00;;;;;;;-1.58;55.83;96245.84;5024869;28;20222;-79
2024/01/10 10:41:16;;;;;;;25.57;15.70;;;;;;;-1.48;56.30;96240.34;5004495;28;20210;-76
2024/01/10 10:43:41;;;;;;;25.97;16.20;;;;;;;-1.48;55.89;96242.91;5020521;28;20549;-79
2024/01/10 10:46:14;;;;;;;28.37;16.93;;;;;;;-1.33;55.67;96244.00;5024444;28;20298;-79
2024/01/10 10:48:39;;;;;;;31.73;17.17;;;;;;;-1.23;55.90;96244.53;5004363;28;20608;-79
2024/01/10 10:51:12;;;;;;;26.00;16.87;;;;;;;-1.10;56.03;96249.94;5016708;28;20186;-80
2024/01/10 10:53:40;;;;;;;29.27;16.93;;;;;;;-1.28;56.25;96243.84;4998858;28;20249;-79
2024/01/10 10:56:07;;;;;;;28.07;16.33;;;;;;;-1.06;55.55;96239.59;5020076;28;20195;-78
2024/01/10 10:58:41;;;;;;;29.47;17.40;;;;;;;-1.15;55.75;96242.47;5017267;28;20233;-79
2024/01/10 11:01:08;;;;;;;29.20;17.13;;;;;;;-1.04;55.60;96236.97;5000638;28;20213;-79
2024/01/10 11:03:39;;;;;;;29.40;17.83;;;;;;;-0.89;55.23;96244.00;5018785;28;20184;-80
2024/01/10 11:06:05;;;;;;;30.97;17.27;;;;;;;-0.72;54.93;96244.16;5018103;28;20194;-79
2024/01/10 11:08:35;;;;;;;32.77;16.77;;;;;;;-0.63;55.24;96248.03;4998823;28;20210;-79
2024/01/10 11:11:02;;;;;;;26.90;17.20;;;;;;;-0.69;54.70;96248.31;5017810;28;20171;-80